createdAt,value
2022-09-15T00:00:53.660Z,6.15
2022-09-15T00:03:21.267Z,7.03
2022-09-15T00:05:48.138Z,6.57
2022-09-15T00:08:14.886Z,6.03
2022-09-15T00:10:58.480Z,5.10
2022-09-15T00:13:25.538Z,5.60
2022-09-15T00:15:52.390Z,6.17
2022-09-15T00:18:19.148Z,5.78
2022-09-15T00:20:46.012Z,6.60
2022-09-15T00:23:13.796Z,6.05
2022-09-15T00:25:51.123Z,7.10
2022-09-15T00:28:19.258Z,6.05
2022-09-15T00:30:50.467Z,6.13
2022-09-15T00:33:17.577Z,5.75
2022-09-15T00:35:45.364Z,5.20
2022-09-15T00:38:12.641Z,6.05
2022-09-15T00:40:52.425Z,5.30
2022-09-15T00:43:20.680Z,5.30
2022-09-15T00:45:48.429Z,5.88
2022-09-15T00:48:19.291Z,5.45
2022-09-15T00:50:48.993Z,5.72
2022-09-15T00:53:15.704Z,5.30
2022-09-15T00:55:48.303Z,5.90
2022-09-15T00:58:36.392Z,5.47
2022-09-15T01:01:04.147Z,5.78
2022-09-15T01:03:32.654Z,6.10
2022-09-15T01:06:07.682Z,5.72
2022-09-15T01:08:40.427Z,6.53
2022-09-15T01:11:07.145Z,6.72
2022-09-15T01:13:34.359Z,5.97
2022-09-15T01:16:38.958Z,6.40
2022-09-15T01:21:50.194Z,6.80
2022-09-15T01:24:35.372Z,6.88
2022-09-15T01:27:30.626Z,7.18
2022-09-15T01:30:19.670Z,6.05
2022-09-15T01:33:11.607Z,7.20
2022-09-15T01:35:48.158Z,7.75
2022-09-15T01:38:28.496Z,6.88
2022-09-15T01:41:00.077Z,7.35
2022-09-15T01:43:27.087Z,6.97
2022-09-15T01:45:54.088Z,6.60
2022-09-15T01:48:22.556Z,6.95
2022-09-15T01:50:51.562Z,6.50
2022-09-15T01:53:19.730Z,6.65
2022-09-15T01:55:54.151Z,7.68
2022-09-15T01:58:21.177Z,8.18
2022-09-15T02:01:02.275Z,8.80
2022-09-15T02:03:35.163Z,7.50
2022-09-15T02:06:13.271Z,9.90
2022-09-15T02:08:45.261Z,7.07
2022-09-15T02:11:19.908Z,6.82
2022-09-15T02:14:04.585Z,8.18
2022-09-15T02:16:34.375Z,6.88
2022-09-15T02:19:21.428Z,7.43
2022-09-15T02:22:17.709Z,7.35
2022-09-15T02:24:51.287Z,7.43
2022-09-15T02:27:22.335Z,8.27
2022-09-15T02:29:49.050Z,7.53
2022-09-15T02:32:16.533Z,8.38
2022-09-15T02:34:46.849Z,8.50
2022-09-15T02:37:14.008Z,8.60
2022-09-15T02:39:43.870Z,8.43
2022-09-15T02:42:10.643Z,9.05
2022-09-15T02:44:37.676Z,7.97
2022-09-15T02:47:04.540Z,8.50
2022-09-15T02:49:31.337Z,9.57
2022-09-15T02:51:57.985Z,8.25
2022-09-15T02:54:24.666Z,9.43
2022-09-15T02:56:51.365Z,9.25
2022-09-15T02:59:18.034Z,8.63
2022-09-15T03:01:44.990Z,8.63
2022-09-15T03:04:11.818Z,8.43
2022-09-15T03:06:38.515Z,8.10
2022-09-15T03:09:06.753Z,8.90
2022-09-15T03:11:33.975Z,8.98
2022-09-15T03:14:02.640Z,9.23
2022-09-15T03:16:30.371Z,9.20
2022-09-15T03:18:58.655Z,9.27
2022-09-15T03:21:25.595Z,9.40
2022-09-15T03:23:52.350Z,8.35
2022-09-15T03:26:19.298Z,10.02
2022-09-15T03:28:45.999Z,9.02
2022-09-15T03:31:12.741Z,8.60
2022-09-15T03:33:40.234Z,7.85
2022-09-15T03:36:07.327Z,8.27
2022-09-15T03:38:34.151Z,7.80
2022-09-15T03:41:02.861Z,8.27
2022-09-15T03:43:30.461Z,7.70
2022-09-15T03:45:57.721Z,7.82
2022-09-15T03:48:24.879Z,7.68
2022-09-15T03:50:51.838Z,8.40
2022-09-15T03:53:18.810Z,7.47
2022-09-15T03:55:46.085Z,7.78
2022-09-15T03:58:13.450Z,8.07
2022-09-15T04:00:41.189Z,7.68
2022-09-15T04:03:08.495Z,9.27
2022-09-15T04:05:35.427Z,10.27
2022-09-15T04:08:02.429Z,10.05
2022-09-15T04:10:29.385Z,8.70
2022-09-15T04:12:56.097Z,7.60
2022-09-15T04:15:22.909Z,8.43
2022-09-15T04:17:49.725Z,7.78
2022-09-15T04:20:17.185Z,8.45
2022-09-15T04:22:44.692Z,8.07
2022-09-15T04:25:11.732Z,9.02
2022-09-15T04:27:38.835Z,7.88
2022-09-15T04:30:06.999Z,7.40
2022-09-15T04:32:36.021Z,8.32
2022-09-15T04:35:04.079Z,8.15
2022-09-15T04:37:31.634Z,8.20
2022-09-15T04:39:58.444Z,7.93
2022-09-15T04:42:25.415Z,9.38
2022-09-15T04:44:52.089Z,8.20
2022-09-15T04:47:19.482Z,7.65
2022-09-15T04:49:46.206Z,7.28
2022-09-15T04:52:12.945Z,7.63
2022-09-15T04:54:39.773Z,6.55
2022-09-15T04:57:06.801Z,6.72
2022-09-15T04:59:33.629Z,5.72
2022-09-15T05:02:00.434Z,6.38
2022-09-15T05:04:27.218Z,5.80
2022-09-15T05:06:53.895Z,6.13
2022-09-15T05:09:20.809Z,6.78
2022-09-15T05:11:47.568Z,5.50
2022-09-15T05:14:15.672Z,6.25
2022-09-15T05:16:42.530Z,6.80
2022-09-15T05:19:09.654Z,5.55
2022-09-15T05:21:36.538Z,6.03
2022-09-15T05:24:03.552Z,5.85
2022-09-15T05:26:30.436Z,5.82
2022-09-15T05:28:57.307Z,6.20
2022-09-15T05:31:33.930Z,5.25
2022-09-15T05:34:02.732Z,5.68
2022-09-15T05:36:29.949Z,6.65
2022-09-15T05:38:56.849Z,5.65
2022-09-15T05:41:23.797Z,5.55
2022-09-15T05:43:51.036Z,5.57
2022-09-15T05:46:18.562Z,5.70
2022-09-15T05:48:45.894Z,6.45
2022-09-15T05:51:12.825Z,5.00
2022-09-15T05:53:39.683Z,5.22
2022-09-15T05:56:11.813Z,5.65
2022-09-15T05:58:42.507Z,7.13
2022-09-15T06:01:17.503Z,5.22
2022-09-15T06:03:44.402Z,4.15
2022-09-15T06:06:12.220Z,5.18
2022-09-15T06:08:44.505Z,5.88
2022-09-15T06:11:33.853Z,4.65
2022-09-15T06:14:03.028Z,4.65
2022-09-15T06:16:32.012Z,4.68
2022-09-15T06:18:59.130Z,4.90
2022-09-15T06:21:27.166Z,5.50
2022-09-15T06:23:55.195Z,4.90
2022-09-15T06:26:22.015Z,3.97
2022-09-15T06:28:53.388Z,4.93
2022-09-15T06:31:21.141Z,4.75
2022-09-15T06:33:51.322Z,4.80
2022-09-15T06:36:18.689Z,4.75
2022-09-15T06:38:46.043Z,4.10
2022-09-15T06:41:13.041Z,3.95
2022-09-15T06:43:39.927Z,4.65
2022-09-15T06:46:14.854Z,4.82
2022-09-15T06:48:44.221Z,4.28
2022-09-15T06:51:13.976Z,4.10
2022-09-15T06:53:40.984Z,4.60
2022-09-15T06:56:12.410Z,4.13
2022-09-15T06:58:40.079Z,4.53
2022-09-15T07:01:12.296Z,4.07
2022-09-15T07:03:40.124Z,3.78
2022-09-15T07:06:07.677Z,4.68
2022-09-15T07:08:34.453Z,3.75
2022-09-15T07:11:01.328Z,5.20
2022-09-15T07:13:28.031Z,4.55
2022-09-15T07:15:56.196Z,3.83
2022-09-15T07:18:23.169Z,4.43
2022-09-15T07:20:50.136Z,4.55
2022-09-15T07:23:17.345Z,5.43
2022-09-15T07:25:44.966Z,4.25
2022-09-15T07:28:12.424Z,4.47
2022-09-15T07:30:39.515Z,4.43
2022-09-15T07:33:08.842Z,4.70
2022-09-15T07:35:35.614Z,6.00
2022-09-15T07:38:02.812Z,4.63
2022-09-15T07:40:29.574Z,4.35
2022-09-15T07:42:56.334Z,4.63
2022-09-15T07:45:26.054Z,4.88
2022-09-15T07:47:52.807Z,4.90
2022-09-15T07:50:19.541Z,4.60
2022-09-15T07:52:46.302Z,5.10
2022-09-15T07:55:13.237Z,4.45
2022-09-15T07:57:40.034Z,4.13
2022-09-15T08:00:07.508Z,4.43
2022-09-15T08:02:35.616Z,4.15
2022-09-15T08:05:02.323Z,4.60
2022-09-15T08:07:29.078Z,5.13
2022-09-15T08:09:55.778Z,5.03
2022-09-15T08:12:22.585Z,4.95
2022-09-15T08:14:49.369Z,6.38
2022-09-15T08:17:16.078Z,4.72
2022-09-15T08:19:42.802Z,5.05
2022-09-15T08:22:09.573Z,5.13
2022-09-15T08:24:37.388Z,4.82
2022-09-15T08:27:04.185Z,4.28
2022-09-15T08:29:31.092Z,5.05
2022-09-15T08:31:57.851Z,3.88
2022-09-15T08:34:24.636Z,5.35
2022-09-15T08:36:51.357Z,4.70
2022-09-15T08:39:18.728Z,6.03
2022-09-15T08:41:49.129Z,4.28
2022-09-15T08:44:36.797Z,4.40
2022-09-15T08:47:27.748Z,4.70
2022-09-15T08:50:38.945Z,4.25
2022-09-15T08:53:09.570Z,4.18
2022-09-15T08:55:40.837Z,4.00
2022-09-15T08:58:18.161Z,3.88
2022-09-15T09:00:51.712Z,4.22
2022-09-15T09:03:24.630Z,3.88
2022-09-15T09:06:12.424Z,4.20
2022-09-15T09:08:48.230Z,4.65
2022-09-15T09:11:26.716Z,3.88
2022-09-15T09:14:23.234Z,5.00
2022-09-15T09:16:57.256Z,3.60
2022-09-15T09:19:32.212Z,3.80
2022-09-15T09:22:05.678Z,4.05
2022-09-15T09:24:44.514Z,4.15
2022-09-15T09:27:23.171Z,3.80
2022-09-15T09:29:54.589Z,3.80
2022-09-15T09:32:26.541Z,3.80
2022-09-15T09:35:13.093Z,3.60
2022-09-15T09:37:39.865Z,3.90
2022-09-15T09:40:07.198Z,4.00
2022-09-15T09:42:37.069Z,4.97
2022-09-15T09:45:05.130Z,4.05
2022-09-15T09:47:32.409Z,4.40
2022-09-15T09:50:00.006Z,3.55
2022-09-15T09:52:37.669Z,4.80
2022-09-15T09:55:16.953Z,3.90
2022-09-15T09:57:43.681Z,4.28
2022-09-15T10:00:39.103Z,5.18
2022-09-15T10:03:22.280Z,4.13
2022-09-15T10:06:05.684Z,3.63
2022-09-15T10:08:32.460Z,3.22
2022-09-15T10:11:07.753Z,5.40
2022-09-15T10:13:35.135Z,2.95
2022-09-15T10:16:02.411Z,3.30
2022-09-15T10:18:37.081Z,3.63
2022-09-15T10:21:04.948Z,2.92
2022-09-15T10:23:32.662Z,2.65
2022-09-15T10:26:18.058Z,3.38
2022-09-15T10:28:45.113Z,3.78
2022-09-15T10:31:16.037Z,5.63
2022-09-15T10:33:44.959Z,4.47
2022-09-15T10:36:30.919Z,3.92
2022-09-15T10:39:19.052Z,2.92
2022-09-15T10:42:04.712Z,3.10
2022-09-15T10:44:47.966Z,3.85
2022-09-15T10:47:33.813Z,3.40
2022-09-15T10:50:25.789Z,3.78
2022-09-15T10:52:59.931Z,3.10
2022-09-15T10:55:51.563Z,3.75
2022-09-15T10:58:30.718Z,3.03
2022-09-15T11:01:26.456Z,3.35
2022-09-15T11:04:14.970Z,3.13
2022-09-15T11:07:00.401Z,2.20
2022-09-15T11:09:48.961Z,2.85
2022-09-15T11:12:34.470Z,2.88
2022-09-15T11:15:21.064Z,2.65
2022-09-15T11:17:57.631Z,1.90
2022-09-15T11:20:49.382Z,3.80
2022-09-15T11:23:27.688Z,2.22
2022-09-15T11:26:07.647Z,2.40
2022-09-15T11:28:42.000Z,2.53
2022-09-15T11:31:16.170Z,2.53
2022-09-15T11:33:56.004Z,2.45
2022-09-15T11:36:33.836Z,2.10
2022-09-15T11:39:24.719Z,2.63
2022-09-15T11:42:14.333Z,2.67
2022-09-15T11:44:42.561Z,1.95
2022-09-15T11:47:27.979Z,2.60
2022-09-15T11:50:02.234Z,2.08
2022-09-15T11:52:41.084Z,2.10
2022-09-15T11:55:26.825Z,2.42
2022-09-15T11:58:01.953Z,2.50
2022-09-15T12:00:28.792Z,2.53
2022-09-15T12:03:02.073Z,2.75
2022-09-15T12:05:54.671Z,3.45
2022-09-15T12:08:23.073Z,3.78
2022-09-15T12:10:52.479Z,2.85
2022-09-15T12:13:20.558Z,3.30
2022-09-15T12:15:47.706Z,3.08
2022-09-15T12:18:47.500Z,2.97
2022-09-15T12:21:30.961Z,3.17
2022-09-15T12:24:20.412Z,2.63
2022-09-15T12:26:47.436Z,2.25
2022-09-15T12:29:26.459Z,2.88
2022-09-15T12:32:21.858Z,2.58
2022-09-15T12:35:11.423Z,3.10
2022-09-15T12:37:44.399Z,2.88
2022-09-15T12:40:29.974Z,2.60
2022-09-15T12:42:57.170Z,2.53
2022-09-15T12:45:29.013Z,2.20
2022-09-15T12:47:58.166Z,2.83
2022-09-15T12:50:31.544Z,2.10
2022-09-15T12:53:02.953Z,1.67
2022-09-15T12:55:34.582Z,2.70
2022-09-15T12:58:08.357Z,1.88
2022-09-15T13:00:45.862Z,2.05
2022-09-15T13:06:12.642Z,2.20
2022-09-15T13:08:44.853Z,2.05
2022-09-15T13:11:14.943Z,2.88
2022-09-15T13:13:48.726Z,1.92
2022-09-15T13:16:18.668Z,2.80
2022-09-15T13:18:46.262Z,1.83
2022-09-15T13:21:15.659Z,1.40
2022-09-15T13:23:44.036Z,1.65
2022-09-15T13:26:15.490Z,2.03
2022-09-15T13:28:42.323Z,2.38
2022-09-15T13:31:12.622Z,2.75
2022-09-15T13:40:25.344Z,2.17
2022-09-15T13:43:07.638Z,1.70
2022-09-15T13:45:43.805Z,2.30
2022-09-15T13:48:21.338Z,1.95
2022-09-15T13:50:59.603Z,1.45
2022-09-15T13:53:42.644Z,2.60
2022-09-15T13:56:42.005Z,1.40
2022-09-15T13:59:19.054Z,2.22
2022-09-15T14:01:46.079Z,2.08
2022-09-15T14:04:29.562Z,1.85
2022-09-15T14:07:00.219Z,2.05
2022-09-15T14:09:33.194Z,2.40
2022-09-15T14:12:03.034Z,2.10
2022-09-15T14:14:47.067Z,2.50
2022-09-15T14:19:55.407Z,2.30
2022-09-15T14:22:35.545Z,2.05
2022-09-15T14:25:07.610Z,2.17
2022-09-15T14:27:35.479Z,1.75
2022-09-15T14:30:04.274Z,1.67
2022-09-15T14:32:32.532Z,1.40
2022-09-15T14:34:59.415Z,1.55
2022-09-15T14:37:29.363Z,1.17
2022-09-15T14:39:57.814Z,1.85
2022-09-15T14:42:30.571Z,1.92
2022-09-15T14:48:01.403Z,1.50
2022-09-15T14:50:32.602Z,1.92
2022-09-15T14:53:16.337Z,1.73
2022-09-15T14:56:01.316Z,1.47
2022-09-15T14:58:41.899Z,2.00
2022-09-15T15:01:15.845Z,2.67
2022-09-15T15:04:10.341Z,2.25
2022-09-15T15:06:45.460Z,2.00
2022-09-15T15:09:43.539Z,2.30
2022-09-15T15:12:33.336Z,1.77
2022-09-15T15:15:00.553Z,1.70
2022-09-15T15:17:35.951Z,1.75
2022-09-15T15:20:08.973Z,2.00
2022-09-15T15:22:36.592Z,1.73
2022-09-15T15:25:15.596Z,2.45
2022-09-15T15:27:42.533Z,2.40
2022-09-15T15:30:31.452Z,2.33
2022-09-15T15:33:06.368Z,1.80
2022-09-15T15:35:33.549Z,1.52
2022-09-15T15:38:19.527Z,1.83
2022-09-15T15:40:48.732Z,2.10
2022-09-15T15:43:26.496Z,1.73
2022-09-15T15:46:04.227Z,2.22
2022-09-15T15:48:37.838Z,1.80
2022-09-15T15:51:05.527Z,1.88
2022-09-15T15:53:32.289Z,1.42
2022-09-15T15:56:00.240Z,2.15
2022-09-15T15:58:27.087Z,1.90
2022-09-15T16:00:56.745Z,2.10
2022-09-15T16:03:24.075Z,2.95
2022-09-15T16:05:52.537Z,1.83
2022-09-15T16:08:28.308Z,2.30
2022-09-15T16:10:55.180Z,2.20
2022-09-15T16:13:22.242Z,1.52
2022-09-15T16:15:49.288Z,2.50
2022-09-15T16:18:16.356Z,1.70
2022-09-15T16:20:43.440Z,2.00
2022-09-15T16:23:19.075Z,1.90
2022-09-15T16:25:50.138Z,1.23
2022-09-15T16:28:17.375Z,1.42
2022-09-15T16:30:44.180Z,1.40
2022-09-15T16:33:13.676Z,1.50
2022-09-15T16:35:51.323Z,1.45
2022-09-15T16:38:20.155Z,1.40
2022-09-15T16:40:47.798Z,1.38
2022-09-15T16:43:16.270Z,1.50
2022-09-15T16:45:43.213Z,1.70
2022-09-15T16:48:10.374Z,1.95
2022-09-15T16:50:39.826Z,1.80
2022-09-15T16:53:19.246Z,1.13
2022-09-15T16:55:50.250Z,1.42
2022-09-15T16:58:17.658Z,1.20
2022-09-15T17:00:45.681Z,1.40
2022-09-15T17:03:15.927Z,1.63
2022-09-15T17:05:50.493Z,1.70
2022-09-15T17:08:18.196Z,1.55
2022-09-15T17:10:45.548Z,1.63
2022-09-15T17:13:17.532Z,1.50
2022-09-15T17:15:45.864Z,1.15
2022-09-15T17:18:16.388Z,1.40
2022-09-15T17:20:43.829Z,1.30
2022-09-15T17:23:23.572Z,1.30
2022-09-15T17:25:59.099Z,1.63
2022-09-15T17:28:27.206Z,1.50
2022-09-15T17:30:59.795Z,1.33
2022-09-15T17:33:26.982Z,1.45
2022-09-15T17:35:53.759Z,1.73
2022-09-15T17:38:21.744Z,1.52
2022-09-15T17:40:49.806Z,1.50
2022-09-15T17:43:18.149Z,1.42
2022-09-15T17:45:45.574Z,1.05
2022-09-15T17:48:12.403Z,1.45
2022-09-15T17:50:39.851Z,1.15
2022-09-15T17:53:13.537Z,1.92
2022-09-15T17:58:07.257Z,1.38
2022-09-15T18:00:35.823Z,1.42
2022-09-15T18:03:05.249Z,1.15
2022-09-15T18:05:34.188Z,1.30
2022-09-15T18:08:03.252Z,1.67
2022-09-15T18:10:34.460Z,1.10
2022-09-15T18:13:01.348Z,1.52
2022-09-15T18:15:29.858Z,1.60
2022-09-15T18:17:59.170Z,1.50
2022-09-15T18:20:27.156Z,1.30
2022-09-15T18:22:54.107Z,1.48
2022-09-15T18:25:20.796Z,1.58
2022-09-15T18:27:49.273Z,1.55
2022-09-15T18:30:16.615Z,2.13
2022-09-15T18:32:43.353Z,1.55
2022-09-15T18:35:14.150Z,1.77
2022-09-15T18:37:43.398Z,1.90
2022-09-15T18:40:11.622Z,1.58
2022-09-15T18:42:38.867Z,1.83
2022-09-15T18:45:06.647Z,1.92
2022-09-15T18:47:33.885Z,1.42
2022-09-15T18:50:00.780Z,2.03
2022-09-15T18:52:28.039Z,1.95
2022-09-15T18:54:54.934Z,1.40
2022-09-15T18:57:22.358Z,1.73
2022-09-15T18:59:49.721Z,1.75
2022-09-15T19:02:16.631Z,1.33
2022-09-15T19:04:43.526Z,1.40
2022-09-15T19:07:10.643Z,2.42
2022-09-15T19:09:37.428Z,1.42
2022-09-15T19:12:04.573Z,1.60
2022-09-15T19:14:31.369Z,1.75
2022-09-15T19:16:58.707Z,1.58
2022-09-15T19:19:25.570Z,1.90
2022-09-15T19:21:52.278Z,1.55
2022-09-15T19:24:19.137Z,1.95
2022-09-15T19:26:47.214Z,1.95
2022-09-15T19:29:14.148Z,2.10
2022-09-15T19:31:42.098Z,1.77
2022-09-15T19:34:09.386Z,1.55
2022-09-15T19:36:36.391Z,2.50
2022-09-15T19:39:03.952Z,1.20
2022-09-15T19:41:31.057Z,1.17
2022-09-15T19:44:00.112Z,1.67
2022-09-15T19:46:27.081Z,1.50
2022-09-15T19:48:54.146Z,1.70
2022-09-15T19:51:21.219Z,1.25
2022-09-15T19:53:47.973Z,1.65
2022-09-15T19:56:21.840Z,1.30
2022-09-15T19:58:49.140Z,1.42
2022-09-15T20:01:15.904Z,1.27
2022-09-15T20:03:42.911Z,1.33
2022-09-15T20:06:09.755Z,1.63
2022-09-15T20:08:37.049Z,1.38
2022-09-15T20:11:07.687Z,1.65
2022-09-15T20:13:39.183Z,1.15
2022-09-15T20:16:06.364Z,2.15
2022-09-15T20:18:33.623Z,1.38
2022-09-15T20:21:03.397Z,1.30
2022-09-15T20:23:30.157Z,1.02
2022-09-15T20:26:01.707Z,2.28
2022-09-15T20:28:29.556Z,1.20
2022-09-15T20:31:00.534Z,1.58
2022-09-15T20:33:27.452Z,1.92
2022-09-15T20:35:54.381Z,1.45
2022-09-15T20:38:21.344Z,1.63
2022-09-15T20:40:48.083Z,1.30
2022-09-15T20:43:14.886Z,1.30
2022-09-15T20:45:41.662Z,1.45
2022-09-15T20:48:08.937Z,1.60
2022-09-15T20:50:35.685Z,1.40
2022-09-15T20:53:02.427Z,1.48
2022-09-15T20:55:29.523Z,1.25
2022-09-15T20:57:56.250Z,1.63
2022-09-15T21:00:22.981Z,1.75
2022-09-15T21:02:52.893Z,2.55
2022-09-15T21:05:19.985Z,1.52
2022-09-15T21:07:48.214Z,1.40
2022-09-15T21:10:15.665Z,2.08
2022-09-15T21:12:42.479Z,1.50
2022-09-15T21:15:09.815Z,1.30
2022-09-15T21:17:36.602Z,1.83
2022-09-15T21:20:03.794Z,1.90
2022-09-15T21:22:30.600Z,1.33
2022-09-15T21:24:57.431Z,1.30
2022-09-15T21:27:26.897Z,1.52
2022-09-15T21:29:54.287Z,1.70
2022-09-15T21:32:21.115Z,2.05
2022-09-15T21:34:48.285Z,2.92
2022-09-15T21:37:15.031Z,0.90
2022-09-15T21:39:41.772Z,1.77
2022-09-15T21:42:10.189Z,1.75
2022-09-15T21:44:37.009Z,1.52
2022-09-15T21:47:05.171Z,1.13
2022-09-15T21:49:32.341Z,1.60
2022-09-15T21:51:59.120Z,1.17
2022-09-15T21:54:25.938Z,1.25
2022-09-15T21:56:52.671Z,1.30
2022-09-15T21:59:19.437Z,1.50
2022-09-15T22:01:46.206Z,1.38
2022-09-15T22:04:13.890Z,1.15
2022-09-15T22:06:41.035Z,1.60
2022-09-15T22:09:09.952Z,1.48
2022-09-15T22:11:37.124Z,1.40
2022-09-15T22:14:04.273Z,2.08
2022-09-15T22:16:31.129Z,1.60
2022-09-15T22:18:57.851Z,1.55
2022-09-15T22:21:26.809Z,1.40
2022-09-15T22:23:56.917Z,1.92
2022-09-15T22:26:28.163Z,1.63
2022-09-15T22:28:55.014Z,1.83
2022-09-15T22:31:22.849Z,1.40
2022-09-15T22:33:49.629Z,1.80
2022-09-15T22:36:18.045Z,1.42
2022-09-15T22:38:44.901Z,1.90
2022-09-15T22:41:13.434Z,2.42
2022-09-15T22:43:41.030Z,1.77
2022-09-15T22:46:08.217Z,1.35
2022-09-15T22:48:37.557Z,1.55
2022-09-15T22:51:07.882Z,2.10
2022-09-15T22:53:34.763Z,1.42
2022-09-15T22:56:15.477Z,1.10
2022-09-15T22:58:43.856Z,1.23
2022-09-15T23:01:15.331Z,1.50
2022-09-15T23:03:42.274Z,1.38
2022-09-15T23:06:09.135Z,2.28
2022-09-15T23:08:36.566Z,1.38
2022-09-15T23:11:04.407Z,1.80
2022-09-15T23:13:31.114Z,2.22
2022-09-15T23:15:57.974Z,1.20
2022-09-15T23:18:24.914Z,1.88
2022-09-15T23:21:07.317Z,1.83
2022-09-15T23:23:35.019Z,1.45
2022-09-15T23:26:02.289Z,1.60
2022-09-15T23:28:29.899Z,2.10
2022-09-15T23:30:57.298Z,1.90
2022-09-15T23:33:24.494Z,2.50
2022-09-15T23:35:51.832Z,1.70
2022-09-15T23:38:19.382Z,1.73
2022-09-15T23:40:46.544Z,1.50
2022-09-15T23:43:13.881Z,2.05
2022-09-15T23:45:40.640Z,1.88
2022-09-15T23:48:10.692Z,3.80
2022-09-15T23:50:37.848Z,1.95
2022-09-15T23:53:04.820Z,1.90
2022-09-15T23:55:31.561Z,1.35
2022-09-15T23:57:58.288Z,1.60
